Kam Paeng Phet, Thailand
Current Conditions -  °F | °C
As of 12:00 PM on Saturday 20 Dec 2014 (Local Time) from VTCC Reporting Station
Few Clouds Few Clouds  
Wind Chill: 77°   Ceiling: Unl
Heat Index: 78°   Visibility: 6mi
Dew Point: 54°   Wind: 6mph
Humidity: 44%   Direction: 60°ENE
Pressure: 30.06"   Gusts: NA
Location:  16.48°N, 99.53°E
Report Text: VTCC 200500Z 06005KT 9999 FEW040 25/12 Q1018 A3008 NOSIG
Loading
Personal Weather Stations






























Interactive Weather Map New forecast layout! Learn more

10-Day Weather Forecast

Advertisements
Track Severe Weather on mobile